createdAt,value
2018-09-06T00:00:58.937Z,1013.60
2018-09-06T00:01:58.552Z,1013.62
2018-09-06T00:02:58.522Z,1013.61
2018-09-06T00:03:59.381Z,1013.59
2018-09-06T00:04:59.503Z,1013.62
2018-09-06T00:05:58.944Z,1013.61
2018-09-06T00:06:58.465Z,1013.60
2018-09-06T00:07:59.385Z,1013.65
2018-09-06T00:08:58.883Z,1013.64
2018-09-06T00:09:58.349Z,1013.62
2018-09-06T00:10:58.315Z,1013.62
2018-09-06T00:11:58.341Z,1013.63
2018-09-06T00:12:58.267Z,1013.64
2018-09-06T00:13:58.240Z,1013.63
2018-09-06T00:14:58.214Z,1013.63
2018-09-06T00:15:58.887Z,1013.65
2018-09-06T00:16:58.215Z,1013.63
2018-09-06T00:17:58.139Z,1013.60
2018-09-06T00:18:58.106Z,1013.62
2018-09-06T00:19:58.941Z,1013.62
2018-09-06T00:20:58.889Z,1013.62
2018-09-06T00:21:58.443Z,1013.58
2018-09-06T00:22:58.002Z,1013.61
2018-09-06T00:23:58.023Z,1013.59
2018-09-06T00:24:58.893Z,1013.61
2018-09-06T00:25:57.931Z,1013.60
2018-09-06T00:26:57.950Z,1013.63
2018-09-06T00:27:57.875Z,1013.59
2018-09-06T00:28:57.915Z,1013.61
2018-09-06T00:29:58.389Z,1013.59
2018-09-06T00:30:57.813Z,1013.61
2018-09-06T00:31:57.801Z,1013.61
2018-09-06T00:33:00.389Z,1013.62
2018-09-06T00:33:57.955Z,1013.62
2018-09-06T00:34:57.692Z,1013.62
2018-09-06T00:35:58.389Z,1013.62
2018-09-06T00:36:58.389Z,1013.58
2018-09-06T00:37:57.660Z,1013.58
2018-09-06T00:38:57.648Z,1013.58
2018-09-06T00:39:58.391Z,1013.54
2018-09-06T00:40:57.538Z,1013.53
2018-09-06T00:41:58.396Z,1013.54
2018-09-06T00:42:57.489Z,1013.52
2018-09-06T00:43:57.941Z,1013.52
2018-09-06T00:44:57.477Z,1013.50
2018-09-06T00:45:57.408Z,1013.51
2018-09-06T00:46:57.381Z,1013.49
2018-09-06T00:47:57.363Z,1013.53
2018-09-06T00:48:57.891Z,1013.49
2018-09-06T00:49:57.340Z,1013.50
2018-09-06T00:50:57.319Z,1013.52
2018-09-06T00:51:57.251Z,1013.52
2018-09-06T00:52:57.226Z,1013.52
2018-09-06T00:53:57.903Z,1013.50
2018-09-06T00:54:57.894Z,1013.51
2018-09-06T00:55:57.191Z,1013.51
2018-09-06T00:56:57.122Z,1013.52
2018-09-06T00:57:57.142Z,1013.47
2018-09-06T00:58:57.116Z,1013.49
2018-09-06T00:59:57.048Z,1013.49
2018-09-06T01:00:57.084Z,1013.49
2018-09-06T01:01:56.990Z,1013.47
2018-09-06T01:02:57.038Z,1013.43
2018-09-06T01:03:57.455Z,1013.46
2018-09-06T01:04:56.912Z,1013.46
2018-09-06T01:05:56.887Z,1013.48
2018-09-06T01:06:56.860Z,1013.47
2018-09-06T01:07:56.877Z,1013.46
2018-09-06T01:08:56.947Z,1013.46
2018-09-06T01:09:56.782Z,1013.50
2018-09-06T01:10:56.761Z,1013.46
2018-09-06T01:11:56.740Z,1013.47
2018-09-06T01:12:56.747Z,1013.45
2018-09-06T01:13:56.726Z,1013.44
2018-09-06T01:14:56.654Z,1013.42
2018-09-06T01:15:57.398Z,1013.40
2018-09-06T01:16:56.603Z,1013.42
2018-09-06T01:17:56.579Z,1013.39
2018-09-06T01:18:56.590Z,1013.39
2018-09-06T01:19:57.411Z,1013.39
2018-09-06T01:20:57.397Z,1013.37
2018-09-06T01:21:57.401Z,1013.39
2018-09-06T01:22:56.449Z,1013.38
2018-09-06T01:23:56.484Z,1013.37
2018-09-06T01:24:56.395Z,1013.35
2018-09-06T01:25:56.903Z,1013.34
2018-09-06T01:26:56.903Z,1013.34
2018-09-06T01:27:56.317Z,1013.35
2018-09-06T01:28:56.346Z,1013.31
2018-09-06T01:29:56.265Z,1013.33
2018-09-06T01:30:56.240Z,1013.32
2018-09-06T01:31:56.908Z,1013.31
2018-09-06T01:32:56.901Z,1013.29
2018-09-06T01:33:56.204Z,1013.31
2018-09-06T01:34:56.134Z,1013.31
2018-09-06T01:35:56.112Z,1013.30
2018-09-06T01:36:56.959Z,1013.28
2018-09-06T01:37:56.063Z,1013.32
2018-09-06T01:38:56.031Z,1013.33
2018-09-06T01:39:56.459Z,1013.31
2018-09-06T01:40:55.980Z,1013.33
2018-09-06T01:41:55.999Z,1013.30
2018-09-06T01:42:56.904Z,1013.27
2018-09-06T01:43:55.920Z,1013.33
2018-09-06T01:44:55.915Z,1013.27
2018-09-06T01:45:55.959Z,1013.29
2018-09-06T01:46:56.404Z,1013.25
2018-09-06T01:47:55.818Z,1013.29
2018-09-06T01:48:55.794Z,1013.27
2018-09-06T01:49:55.752Z,1013.29
2018-09-06T01:50:56.813Z,1013.29
2018-09-06T01:51:55.697Z,1013.28
2018-09-06T01:52:56.409Z,1013.27
2018-09-06T01:53:56.411Z,1013.26
2018-09-06T01:54:55.619Z,1013.22
2018-09-06T01:55:55.643Z,1013.23
2018-09-06T01:56:56.407Z,1013.23
2018-09-06T01:57:56.406Z,1013.20
2018-09-06T01:58:56.411Z,1013.24
2018-09-06T01:59:56.407Z,1013.18
2018-09-06T02:00:55.510Z,1013.20
2018-09-06T02:01:55.489Z,1013.22
2018-09-06T02:02:55.416Z,1013.19
2018-09-06T02:03:55.910Z,1013.22
2018-09-06T02:04:55.370Z,1013.19
2018-09-06T02:05:55.398Z,1013.18
2018-09-06T02:06:55.468Z,1013.19
2018-09-06T02:07:55.285Z,1013.17
2018-09-06T02:08:55.267Z,1013.16
2018-09-06T02:09:55.237Z,1013.16
2018-09-06T02:10:55.260Z,1013.18
2018-09-06T02:11:55.468Z,1013.16
2018-09-06T02:12:55.915Z,1013.15
2018-09-06T02:13:55.912Z,1013.19
2018-09-06T02:14:55.110Z,1013.19
2018-09-06T02:15:55.189Z,1013.12
2018-09-06T02:16:55.056Z,1013.11
2018-09-06T02:17:55.914Z,1013.14
2018-09-06T02:18:55.010Z,1013.10
2018-09-06T02:19:55.913Z,1013.07
2018-09-06T02:20:55.465Z,1013.07
2018-09-06T02:21:55.912Z,1013.06
2018-09-06T02:22:54.904Z,1013.02
2018-09-06T02:23:54.966Z,1013.04
2018-09-06T02:24:54.975Z,1013.01
2018-09-06T02:25:55.424Z,1012.98
2018-09-06T02:26:54.808Z,1012.97
2018-09-06T02:27:54.824Z,1012.96
2018-09-06T02:28:54.756Z,1012.96
2018-09-06T02:29:54.766Z,1012.92
2018-09-06T02:30:54.700Z,1012.96
2018-09-06T02:31:55.417Z,1012.96
2018-09-06T02:32:54.654Z,1012.98
2018-09-06T02:33:54.629Z,1012.93
2018-09-06T02:34:54.969Z,1013.00
2018-09-06T02:35:55.415Z,1012.96
2018-09-06T02:36:54.549Z,1012.93
2018-09-06T02:37:55.417Z,1012.95
2018-09-06T02:38:55.416Z,1012.92
2018-09-06T02:39:54.517Z,1012.94
2018-09-06T02:40:54.450Z,1012.90
2018-09-06T02:41:54.443Z,1012.91
2018-09-06T02:42:54.403Z,1012.88
2018-09-06T02:43:54.918Z,1012.87
2018-09-06T02:44:54.390Z,1012.83
2018-09-06T02:45:54.915Z,1012.82
2018-09-06T02:46:54.295Z,1012.84
2018-09-06T02:47:54.270Z,1012.82
2018-09-06T02:48:54.248Z,1012.83
2018-09-06T02:49:54.265Z,1012.78
2018-09-06T02:50:54.478Z,1012.80
2018-09-06T02:51:54.185Z,1012.80
2018-09-06T02:52:54.145Z,1012.77
2018-09-06T02:53:54.952Z,1012.78
2018-09-06T02:54:54.096Z,1012.79
2018-09-06T02:55:54.129Z,1012.72
2018-09-06T02:56:54.042Z,1012.70
2018-09-06T02:57:54.024Z,1012.72
2018-09-06T02:58:54.003Z,1012.71
2018-09-06T02:59:53.970Z,1012.73
2018-09-06T03:00:53.997Z,1012.69
2018-09-06T03:01:53.922Z,1012.69
2018-09-06T03:02:53.894Z,1012.70
2018-09-06T03:03:53.870Z,1012.69
2018-09-06T03:04:53.840Z,1012.68
2018-09-06T03:05:53.860Z,1012.65
2018-09-06T03:06:53.974Z,1012.72
2018-09-06T03:07:54.428Z,1012.64
2018-09-06T03:08:53.739Z,1012.68
2018-09-06T03:09:54.423Z,1012.70
2018-09-06T03:10:54.428Z,1012.68
2018-09-06T03:11:54.479Z,1012.72
2018-09-06T03:12:53.638Z,1012.70
2018-09-06T03:13:53.612Z,1012.68
2018-09-06T03:14:53.593Z,1012.70
2018-09-06T03:15:53.569Z,1012.70
2018-09-06T03:16:53.986Z,1012.70
2018-09-06T03:17:54.447Z,1012.71
2018-09-06T03:18:53.488Z,1012.64
2018-09-06T03:19:54.432Z,1012.65
2018-09-06T03:20:53.435Z,1012.59
2018-09-06T03:21:53.495Z,1012.65
2018-09-06T03:22:53.928Z,1012.65
2018-09-06T03:23:53.359Z,1012.67
2018-09-06T03:24:53.334Z,1012.60
2018-09-06T03:25:53.967Z,1012.65
2018-09-06T03:26:53.482Z,1012.68
2018-09-06T03:27:53.943Z,1012.56
2018-09-06T03:28:53.928Z,1012.58
2018-09-06T03:29:53.221Z,1012.53
2018-09-06T03:30:53.191Z,1012.58
2018-09-06T03:31:53.526Z,1012.59
2018-09-06T03:32:53.131Z,1012.55
2018-09-06T03:33:53.104Z,1012.55
2018-09-06T03:34:53.931Z,1012.55
2018-09-06T03:35:53.093Z,1012.58
2018-09-06T03:36:53.083Z,1012.55
2018-09-06T03:37:53.005Z,1012.54
2018-09-06T03:38:52.979Z,1012.57
2018-09-06T03:39:52.951Z,1012.57
2018-09-06T03:40:53.434Z,1012.54
2018-09-06T03:41:53.001Z,1012.55
2018-09-06T03:42:53.438Z,1012.58
2018-09-06T03:43:53.438Z,1012.56
2018-09-06T03:44:53.431Z,1012.55
2018-09-06T03:45:53.433Z,1012.56
2018-09-06T03:46:52.987Z,1012.57
2018-09-06T03:47:52.758Z,1012.56
2018-09-06T03:48:52.762Z,1012.54
2018-09-06T03:49:52.702Z,1012.54
2018-09-06T03:50:52.671Z,1012.54
2018-09-06T03:51:52.652Z,1012.55
2018-09-06T03:52:52.665Z,1012.56
2018-09-06T03:53:53.505Z,1012.54
2018-09-06T03:54:52.570Z,1012.55
2018-09-06T03:55:52.549Z,1012.50
2018-09-06T03:56:52.519Z,1012.52
2018-09-06T03:57:52.565Z,1012.53
2018-09-06T03:58:52.468Z,1012.51
2018-09-06T03:59:53.440Z,1012.52
2018-09-06T04:00:52.934Z,1012.50
2018-09-06T04:01:52.935Z,1012.50
2018-09-06T04:02:52.491Z,1012.47
2018-09-06T04:03:52.387Z,1012.48
2018-09-06T04:04:52.316Z,1012.47
2018-09-06T04:05:52.298Z,1012.48
2018-09-06T04:06:52.935Z,1012.44
2018-09-06T04:07:52.249Z,1012.49
2018-09-06T04:08:52.271Z,1012.49
2018-09-06T04:09:52.193Z,1012.43
2018-09-06T04:10:52.219Z,1012.43
2018-09-06T04:11:52.148Z,1012.45
2018-09-06T04:12:52.954Z,1012.44
2018-09-06T04:13:52.939Z,1012.47
2018-09-06T04:14:52.510Z,1012.45
2018-09-06T04:15:52.098Z,1012.44
2018-09-06T04:16:52.014Z,1012.45
2018-09-06T04:17:52.940Z,1012.46
2018-09-06T04:18:51.961Z,1012.44
2018-09-06T04:19:51.945Z,1012.44
2018-09-06T04:20:51.991Z,1012.45
2018-09-06T04:21:51.891Z,1012.44
2018-09-06T04:22:51.881Z,1012.41
2018-09-06T04:23:51.843Z,1012.41
2018-09-06T04:24:51.862Z,1012.41
2018-09-06T04:25:52.441Z,1012.46
2018-09-06T04:26:51.762Z,1012.45
2018-09-06T04:27:51.735Z,1012.42
2018-09-06T04:28:52.442Z,1012.43
2018-09-06T04:29:51.729Z,1012.44
2018-09-06T04:30:52.010Z,1012.46
2018-09-06T04:31:51.638Z,1012.45
2018-09-06T04:32:51.674Z,1012.41
2018-09-06T04:33:51.580Z,1012.40
2018-09-06T04:34:51.558Z,1012.43
2018-09-06T04:35:51.603Z,1012.43
2018-09-06T04:36:52.443Z,1012.42
2018-09-06T04:37:51.479Z,1012.43
2018-09-06T04:38:51.457Z,1012.41
2018-09-06T04:39:51.942Z,1012.41
2018-09-06T04:40:51.442Z,1012.44
2018-09-06T04:41:51.385Z,1012.45
2018-09-06T04:42:51.948Z,1012.46
2018-09-06T04:43:51.401Z,1012.48
2018-09-06T04:44:51.307Z,1012.50
2018-09-06T04:45:51.341Z,1012.47
2018-09-06T04:46:51.515Z,1012.45
2018-09-06T04:47:51.229Z,1012.44
2018-09-06T04:48:51.200Z,1012.45
2018-09-06T04:49:51.966Z,1012.45
2018-09-06T04:50:51.153Z,1012.48
2018-09-06T04:51:51.176Z,1012.46
2018-09-06T04:52:51.112Z,1012.50
2018-09-06T04:53:51.088Z,1012.48
2018-09-06T04:54:51.949Z,1012.47
2018-09-06T04:55:51.119Z,1012.46
2018-09-06T04:56:51.045Z,1012.43
2018-09-06T04:57:50.977Z,1012.45
2018-09-06T04:58:50.963Z,1012.45
2018-09-06T04:59:51.453Z,1012.45
2018-09-06T05:00:50.945Z,1012.44
2018-09-06T05:01:50.933Z,1012.46
2018-09-06T05:02:50.848Z,1012.43
2018-09-06T05:03:50.825Z,1012.44
2018-09-06T05:04:50.801Z,1012.45
2018-09-06T05:05:50.819Z,1012.46
2018-09-06T05:06:50.749Z,1012.49
2018-09-06T05:07:51.450Z,1012.51
2018-09-06T05:08:50.707Z,1012.51
2018-09-06T05:09:50.679Z,1012.52
2018-09-06T05:10:50.697Z,1012.55
2018-09-06T05:11:50.623Z,1012.55
2018-09-06T05:12:50.604Z,1012.57
2018-09-06T05:13:50.573Z,1012.54
2018-09-06T05:14:50.546Z,1012.57
2018-09-06T05:15:50.574Z,1012.51
2018-09-06T05:16:50.501Z,1012.54
2018-09-06T05:17:50.477Z,1012.55
2018-09-06T05:18:50.501Z,1012.56
2018-09-06T05:19:50.427Z,1012.54
2018-09-06T05:20:50.951Z,1012.56
2018-09-06T05:21:50.425Z,1012.56
2018-09-06T05:22:50.351Z,1012.54
2018-09-06T05:23:50.383Z,1012.57
2018-09-06T05:24:50.301Z,1012.55
2018-09-06T05:25:50.281Z,1012.56
2018-09-06T05:26:50.252Z,1012.59
2018-09-06T05:27:50.228Z,1012.58
2018-09-06T05:28:50.267Z,1012.57
2018-09-06T05:29:50.176Z,1012.61
2018-09-06T05:30:50.239Z,1012.63
2018-09-06T05:31:50.136Z,1012.61
2018-09-06T05:32:50.974Z,1012.62
2018-09-06T05:33:50.155Z,1012.55
2018-09-06T05:34:50.053Z,1012.57
2018-09-06T05:35:50.104Z,1012.54
2018-09-06T05:36:50.957Z,1012.55
2018-09-06T05:37:49.987Z,1012.57
2018-09-06T05:38:49.964Z,1012.55
2018-09-06T05:39:49.934Z,1012.54
2018-09-06T05:40:49.950Z,1012.59
2018-09-06T05:41:49.889Z,1012.53
2018-09-06T05:42:49.862Z,1012.55
2018-09-06T05:43:49.895Z,1012.51
2018-09-06T05:44:49.813Z,1012.53
2018-09-06T05:45:49.792Z,1012.51
2018-09-06T05:46:49.767Z,1012.52
2018-09-06T05:47:49.743Z,1012.48
2018-09-06T05:48:49.760Z,1012.50
2018-09-06T05:49:49.694Z,1012.49
2018-09-06T05:50:49.669Z,1012.45
2018-09-06T05:51:49.662Z,1012.47
2018-09-06T05:52:49.621Z,1012.49
2018-09-06T05:53:49.642Z,1012.48
2018-09-06T05:54:49.618Z,1012.46
2018-09-06T05:55:49.549Z,1012.47
2018-09-06T05:56:49.529Z,1012.45
2018-09-06T05:57:50.473Z,1012.47
2018-09-06T05:58:49.477Z,1012.46
2018-09-06T05:59:49.933Z,1012.46
2018-09-06T06:00:49.966Z,1012.44
2018-09-06T06:01:49.406Z,1012.46
2018-09-06T06:02:49.435Z,1012.44
2018-09-06T06:03:49.360Z,1012.43
2018-09-06T06:04:49.343Z,1012.48
2018-09-06T06:05:49.312Z,1012.46
2018-09-06T06:06:49.308Z,1012.47
2018-09-06T06:07:49.526Z,1012.48
2018-09-06T06:08:49.987Z,1012.41
2018-09-06T06:09:49.220Z,1012.43
2018-09-06T06:10:49.199Z,1012.45
2018-09-06T06:11:49.200Z,1012.44
2018-09-06T06:12:49.192Z,1012.47
2018-09-06T06:13:49.141Z,1012.42
2018-09-06T06:14:49.103Z,1012.45
2018-09-06T06:15:49.111Z,1012.44
2018-09-06T06:16:49.100Z,1012.43
2018-09-06T06:17:49.037Z,1012.45
2018-09-06T06:18:49.008Z,1012.41
2018-09-06T06:19:49.023Z,1012.41
2018-09-06T06:20:49.004Z,1012.40
2018-09-06T06:21:48.943Z,1012.40
2018-09-06T06:22:48.918Z,1012.38
2018-09-06T06:23:48.944Z,1012.38
2018-09-06T06:24:49.471Z,1012.36
2018-09-06T06:25:48.854Z,1012.36
2018-09-06T06:26:49.464Z,1012.38
2018-09-06T06:27:48.844Z,1012.35
2018-09-06T06:28:48.836Z,1012.34
2018-09-06T06:29:49.467Z,1012.34
2018-09-06T06:30:48.730Z,1012.32
2018-09-06T06:31:48.735Z,1012.32
2018-09-06T06:32:48.746Z,1012.29
2018-09-06T06:33:48.675Z,1012.30
2018-09-06T06:34:48.641Z,1012.28
2018-09-06T06:35:49.472Z,1012.32
2018-09-06T06:36:49.472Z,1012.31
2018-09-06T06:37:48.609Z,1012.30
2018-09-06T06:38:49.470Z,1012.33
2018-09-06T06:39:49.442Z,1012.29
2018-09-06T06:40:48.506Z,1012.26
2018-09-06T06:41:48.480Z,1012.28
2018-09-06T06:42:48.507Z,1012.29
2018-09-06T06:43:48.970Z,1012.28
2018-09-06T06:44:48.525Z,1012.27
2018-09-06T06:45:48.970Z,1012.25
2018-09-06T06:46:48.972Z,1012.28
2018-09-06T06:47:48.972Z,1012.27
2018-09-06T06:48:48.977Z,1012.25
2018-09-06T06:49:49.029Z,1012.28
2018-09-06T06:50:48.273Z,1012.28
2018-09-06T06:51:48.249Z,1012.29
2018-09-06T06:52:48.264Z,1012.30
2018-09-06T06:53:48.204Z,1012.29
2018-09-06T06:54:48.223Z,1012.31
2018-09-06T06:55:48.155Z,1012.30
2018-09-06T06:56:48.134Z,1012.33
2018-09-06T06:57:48.114Z,1012.33
2018-09-06T06:58:48.983Z,1012.34
2018-09-06T06:59:48.131Z,1012.32
2018-09-06T07:00:48.989Z,1012.32
2018-09-06T07:01:48.018Z,1012.34
2018-09-06T07:02:47.993Z,1012.33
2018-09-06T07:03:47.981Z,1012.31
2018-09-06T07:04:47.993Z,1012.30
2018-09-06T07:05:47.925Z,1012.31
2018-09-06T07:06:47.921Z,1012.31
2018-09-06T07:07:47.880Z,1012.31
2018-09-06T07:08:47.870Z,1012.30
2018-09-06T07:09:47.917Z,1012.28
2018-09-06T07:10:47.818Z,1012.30
2018-09-06T07:11:47.785Z,1012.23
2018-09-06T07:12:47.763Z,1012.26
2018-09-06T07:13:47.751Z,1012.25
2018-09-06T07:14:48.033Z,1012.26
2018-09-06T07:15:48.481Z,1012.21
2018-09-06T07:16:47.678Z,1012.21
2018-09-06T07:17:48.481Z,1012.24
2018-09-06T07:18:47.634Z,1012.24
2018-09-06T07:19:47.648Z,1012.24
2018-09-06T07:20:47.638Z,1012.22
2018-09-06T07:21:47.556Z,1012.22
2018-09-06T07:22:48.485Z,1012.25
2018-09-06T07:23:47.509Z,1012.23
2018-09-06T07:24:47.532Z,1012.21
2018-09-06T07:25:47.469Z,1012.27
2018-09-06T07:26:47.454Z,1012.24
2018-09-06T07:27:47.427Z,1012.24
2018-09-06T07:28:47.396Z,1012.21
2018-09-06T07:29:47.444Z,1012.23
2018-09-06T07:30:47.395Z,1012.24
2018-09-06T07:31:47.338Z,1012.24
2018-09-06T07:32:47.363Z,1012.25
2018-09-06T07:33:47.302Z,1012.24
2018-09-06T07:34:47.306Z,1012.23
2018-09-06T07:35:47.278Z,1012.22
2018-09-06T07:36:47.987Z,1012.19
2018-09-06T07:37:47.190Z,1012.19
2018-09-06T07:38:47.166Z,1012.16
2018-09-06T07:39:47.159Z,1012.21
2018-09-06T07:40:47.167Z,1012.20
2018-09-06T07:41:47.985Z,1012.18
2018-09-06T07:42:47.072Z,1012.16
2018-09-06T07:43:47.054Z,1012.17
2018-09-06T07:44:47.986Z,1012.15
2018-09-06T07:45:47.050Z,1012.18
2018-09-06T07:46:47.019Z,1012.15
2018-09-06T07:47:46.959Z,1012.16
2018-09-06T07:48:46.939Z,1012.18
2018-09-06T07:49:46.914Z,1012.16
2018-09-06T07:50:46.946Z,1012.16
2018-09-06T07:51:46.871Z,1012.15
2018-09-06T07:52:46.847Z,1012.13
2018-09-06T07:53:46.830Z,1012.15
2018-09-06T07:54:47.488Z,1012.17
2018-09-06T07:55:46.827Z,1012.18
2018-09-06T07:56:46.807Z,1012.15
2018-09-06T07:57:46.734Z,1012.15
2018-09-06T07:58:46.752Z,1012.13
2018-09-06T07:59:46.733Z,1012.15
2018-09-06T08:00:46.668Z,1012.12
2018-09-06T08:01:46.689Z,1012.14
2018-09-06T08:02:46.621Z,1012.12
2018-09-06T08:03:46.597Z,1012.10
2018-09-06T08:04:46.645Z,1012.12
2018-09-06T08:05:46.557Z,1012.14
2018-09-06T08:06:46.561Z,1012.13
2018-09-06T08:07:46.507Z,1012.10
2018-09-06T08:08:46.483Z,1012.10
2018-09-06T08:09:46.549Z,1012.08
2018-09-06T08:10:46.438Z,1012.07
2018-09-06T08:11:46.416Z,1012.06
2018-09-06T08:12:46.549Z,1012.01
2018-09-06T08:13:46.375Z,1012.01
2018-09-06T08:14:46.409Z,1012.03
2018-09-06T08:15:46.326Z,1012.04
2018-09-06T08:16:46.995Z,1012.06
2018-09-06T08:17:46.284Z,1012.03
2018-09-06T08:18:46.277Z,1012.06
2018-09-06T08:19:46.285Z,1012.05
2018-09-06T08:20:46.218Z,1012.03
2018-09-06T08:21:46.209Z,1012.00
2018-09-06T08:22:46.171Z,1012.03
2018-09-06T08:23:46.156Z,1012.03
2018-09-06T08:24:46.170Z,1012.02
2018-09-06T08:25:46.142Z,1012.02
2018-09-06T08:26:46.084Z,1012.05
2018-09-06T08:27:46.058Z,1012.03
2018-09-06T08:28:46.555Z,1012.04
2018-09-06T08:29:46.061Z,1012.04
2018-09-06T08:30:46.601Z,1012.10
2018-09-06T08:31:45.973Z,1012.06
2018-09-06T08:32:45.974Z,1012.07
2018-09-06T08:33:45.969Z,1012.09
2018-09-06T08:34:45.907Z,1012.07
2018-09-06T08:35:45.885Z,1012.08
2018-09-06T08:36:45.881Z,1012.08
2018-09-06T08:37:45.882Z,1012.10
2018-09-06T08:38:45.815Z,1012.04
2018-09-06T08:39:45.838Z,1012.02
2018-09-06T08:40:45.770Z,1012.02
2018-09-06T08:41:45.752Z,1012.01
2018-09-06T08:42:45.729Z,1012.01
2018-09-06T08:43:45.741Z,1012.04
2018-09-06T08:44:45.747Z,1012.01
2018-09-06T08:45:45.661Z,1012.01
2018-09-06T08:46:45.647Z,1012.00
2018-09-06T08:47:45.626Z,1012.02
2018-09-06T08:48:45.644Z,1011.98
2018-09-06T08:49:45.631Z,1011.97
2018-09-06T08:50:45.557Z,1011.99
2018-09-06T08:51:45.537Z,1011.98
2018-09-06T08:52:45.510Z,1012.01
2018-09-06T08:53:45.543Z,1012.02
2018-09-06T08:54:45.515Z,1011.97
2018-09-06T08:55:45.440Z,1011.97
2018-09-06T08:56:45.420Z,1011.95
2018-09-06T08:57:45.399Z,1011.97
2018-09-06T08:58:45.419Z,1011.93
2018-09-06T08:59:45.362Z,1011.93
2018-09-06T09:00:45.347Z,1011.95
2018-09-06T09:01:45.312Z,1012.00
2018-09-06T09:02:45.386Z,1011.91
2018-09-06T09:03:45.313Z,1011.93
2018-09-06T09:04:45.344Z,1011.83
2018-09-06T09:05:46.016Z,1011.86
2018-09-06T09:06:45.205Z,1011.82
2018-09-06T09:07:45.177Z,1011.85
2018-09-06T09:08:45.203Z,1011.84
2018-09-06T09:09:45.139Z,1011.86
2018-09-06T09:10:45.165Z,1011.82
2018-09-06T09:11:45.094Z,1011.77
2018-09-06T09:12:45.075Z,1011.74
2018-09-06T09:13:45.049Z,1011.77
2018-09-06T09:14:45.030Z,1011.74
2018-09-06T09:15:45.055Z,1011.75
2018-09-06T09:16:44.985Z,1011.70
2018-09-06T09:17:44.964Z,1011.70
2018-09-06T09:18:45.003Z,1011.73
2018-09-06T09:19:44.923Z,1011.71
2018-09-06T09:20:44.898Z,1011.68
2018-09-06T09:21:44.909Z,1011.66
2018-09-06T09:22:44.854Z,1011.65
2018-09-06T09:23:44.880Z,1011.61
2018-09-06T09:24:44.811Z,1011.64
2018-09-06T09:25:44.835Z,1011.62
2018-09-06T09:26:44.773Z,1011.61
2018-09-06T09:27:44.747Z,1011.57
2018-09-06T09:28:45.514Z,1011.61
2018-09-06T09:29:44.702Z,1011.63
2018-09-06T09:30:44.788Z,1011.59
2018-09-06T09:31:44.665Z,1011.61
2018-09-06T09:32:44.690Z,1011.59
2018-09-06T09:33:44.623Z,1011.59
2018-09-06T09:34:44.648Z,1011.52
2018-09-06T09:35:45.423Z,1011.56
2018-09-06T09:36:44.559Z,1011.53
2018-09-06T09:37:45.095Z,1011.52
2018-09-06T09:38:44.510Z,1011.52
2018-09-06T09:39:44.492Z,1011.53
2018-09-06T09:40:44.468Z,1011.51
2018-09-06T09:41:44.445Z,1011.48
2018-09-06T09:42:44.478Z,1011.49
2018-09-06T09:43:44.439Z,1011.47
2018-09-06T09:44:44.383Z,1011.45
2018-09-06T09:45:44.403Z,1011.46
2018-09-06T09:48:15.916Z,1011.43
2018-09-06T09:49:15.844Z,1011.38
2018-09-06T09:51:47.345Z,1011.40
2018-09-06T09:52:47.333Z,1011.43
2018-09-06T09:53:47.350Z,1011.39
2018-09-06T09:54:47.290Z,1011.41
2018-09-06T09:55:47.265Z,1011.37
2018-09-06T09:56:47.302Z,1011.39
2018-09-06T09:57:47.222Z,1011.38
2018-09-06T09:58:47.252Z,1011.37
2018-09-06T09:59:47.179Z,1011.38
2018-09-06T10:00:47.166Z,1011.34
2018-09-06T10:01:47.141Z,1011.36
2018-09-06T10:02:47.156Z,1011.33
2018-09-06T10:03:47.160Z,1011.27
2018-09-06T10:04:47.083Z,1011.32
2018-09-06T10:05:47.068Z,1011.29
2018-09-06T10:06:47.078Z,1011.26
2018-09-06T10:07:47.019Z,1011.26
2018-09-06T10:08:46.990Z,1011.21
2018-09-06T10:09:47.089Z,1011.19
2018-09-06T10:10:46.949Z,1011.28
2018-09-06T10:11:46.972Z,1011.20
2018-09-06T10:12:46.910Z,1011.23
2018-09-06T10:13:46.884Z,1011.23
2018-09-06T10:14:46.912Z,1011.23
2018-09-06T10:15:46.844Z,1011.23
2018-09-06T10:16:46.822Z,1011.18
2018-09-06T10:17:46.848Z,1011.19
2018-09-06T10:18:46.781Z,1011.11
2018-09-06T10:19:46.760Z,1011.17
2018-09-06T10:20:46.740Z,1011.13
2018-09-06T10:21:47.538Z,1011.11
2018-09-06T10:22:46.748Z,1011.13
2018-09-06T10:23:46.730Z,1011.13
2018-09-06T10:24:47.546Z,1011.12
2018-09-06T10:25:46.634Z,1011.13
2018-09-06T10:26:46.673Z,1011.07
2018-09-06T10:27:47.094Z,1011.09
2018-09-06T10:28:47.534Z,1011.05
2018-09-06T10:29:46.551Z,1011.01
2018-09-06T10:30:47.093Z,1011.07
2018-09-06T10:31:46.512Z,1011.05
2018-09-06T10:32:46.516Z,1011.03
2018-09-06T10:33:46.515Z,1010.93
2018-09-06T10:34:46.447Z,1010.99
2018-09-06T10:35:46.429Z,1010.94
2018-09-06T10:36:46.410Z,1010.93
2018-09-06T10:37:46.384Z,1010.92
2018-09-06T10:38:46.431Z,1010.94
2018-09-06T10:39:46.344Z,1010.91
2018-09-06T10:40:46.413Z,1010.90
2018-09-06T10:41:46.308Z,1010.87
2018-09-06T10:42:46.297Z,1010.88
2018-09-06T10:43:46.304Z,1010.88
2018-09-06T10:44:46.244Z,1010.87
2018-09-06T10:45:46.224Z,1010.84
2018-09-06T10:46:46.257Z,1010.79
2018-09-06T10:47:46.233Z,1010.81
2018-09-06T10:48:46.160Z,1010.78
2018-09-06T10:49:46.140Z,1010.80
2018-09-06T10:50:46.175Z,1010.78
2018-09-06T10:51:46.098Z,1010.78
2018-09-06T10:52:46.093Z,1010.76
2018-09-06T10:53:47.054Z,1010.76
2018-09-06T10:54:46.042Z,1010.72
2018-09-06T10:55:46.079Z,1010.76
2018-09-06T10:56:46.000Z,1010.74
2018-09-06T10:57:45.986Z,1010.73
2018-09-06T10:58:45.959Z,1010.74
2018-09-06T10:59:45.938Z,1010.75
2018-09-06T11:00:46.056Z,1010.73
2018-09-06T11:01:45.903Z,1010.70
2018-09-06T11:02:45.937Z,1010.65
2018-09-06T11:03:45.869Z,1010.71
2018-09-06T11:04:45.838Z,1010.67
2018-09-06T11:05:45.816Z,1010.64
2018-09-06T11:06:45.844Z,1010.66
2018-09-06T11:07:45.797Z,1010.66
2018-09-06T11:08:45.758Z,1010.61
2018-09-06T11:09:45.781Z,1010.61
2018-09-06T11:10:45.729Z,1010.61
2018-09-06T11:11:45.698Z,1010.64
2018-09-06T11:12:45.684Z,1010.62
2018-09-06T11:13:45.710Z,1010.61
2018-09-06T11:14:45.641Z,1010.62
2018-09-06T11:15:45.620Z,1010.57
2018-09-06T11:16:45.602Z,1010.59
2018-09-06T11:17:45.578Z,1010.60
2018-09-06T11:18:45.597Z,1010.53
2018-09-06T11:19:45.586Z,1010.58
2018-09-06T11:20:45.521Z,1010.59
2018-09-06T11:21:45.623Z,1010.54
2018-09-06T11:22:45.546Z,1010.52
2018-09-06T11:23:45.460Z,1010.52
2018-09-06T11:24:45.498Z,1010.49
2018-09-06T11:25:45.421Z,1010.52
2018-09-06T11:26:45.407Z,1010.52
2018-09-06T11:27:45.395Z,1010.54
2018-09-06T11:28:45.360Z,1010.51
2018-09-06T11:29:45.407Z,1010.49
2018-09-06T11:30:46.059Z,1010.51
2018-09-06T11:31:46.064Z,1010.50
2018-09-06T11:32:45.279Z,1010.48
2018-09-06T11:33:45.262Z,1010.46
2018-09-06T11:34:45.614Z,1010.47
2018-09-06T11:35:45.230Z,1010.49
2018-09-06T11:36:45.205Z,1010.47
2018-09-06T11:37:45.182Z,1010.44
2018-09-06T11:38:45.165Z,1010.42
2018-09-06T11:39:45.188Z,1010.41
2018-09-06T11:40:45.126Z,1010.39
2018-09-06T11:41:45.113Z,1010.34
2018-09-06T11:42:45.090Z,1010.34
2018-09-06T11:43:45.075Z,1010.33
2018-09-06T11:44:45.093Z,1010.29
2018-09-06T11:45:45.070Z,1010.30
2018-09-06T11:46:45.039Z,1010.33
2018-09-06T11:47:45.060Z,1010.27
2018-09-06T11:48:44.967Z,1010.27
2018-09-06T11:49:45.013Z,1010.33
2018-09-06T11:50:44.925Z,1010.32
2018-09-06T11:51:44.905Z,1010.32
2018-09-06T11:52:44.886Z,1010.34
2018-09-06T11:53:44.863Z,1010.33
2018-09-06T11:54:44.888Z,1010.28
2018-09-06T11:55:44.862Z,1010.27
2018-09-06T11:56:44.806Z,1010.27
2018-09-06T11:57:44.783Z,1010.25
2018-09-06T11:58:44.767Z,1010.26
2018-09-06T11:59:44.741Z,1010.22
2018-09-06T12:00:44.784Z,1010.21
2018-09-06T12:01:44.710Z,1010.20
2018-09-06T12:02:44.685Z,1010.13
2018-09-06T12:03:44.660Z,1010.09
2018-09-06T12:04:44.642Z,1010.14
2018-09-06T12:05:44.662Z,1010.12
2018-09-06T12:06:44.618Z,1010.10
2018-09-06T12:07:44.585Z,1010.12
2018-09-06T12:08:44.564Z,1010.05